createdAt,value
2017-05-19T00:01:35.308Z,15.20
2017-05-19T00:04:03.511Z,15.20
2017-05-19T00:06:31.726Z,15.20
2017-05-19T00:09:00.683Z,15.20
2017-05-19T00:11:28.916Z,15.20
2017-05-19T00:13:57.134Z,15.20
2017-05-19T00:16:25.340Z,15.00
2017-05-19T00:18:54.315Z,15.00
2017-05-19T00:21:23.292Z,15.00
2017-05-19T00:23:51.502Z,15.00
2017-05-19T00:26:20.464Z,14.80
2017-05-19T00:28:48.684Z,14.90
2017-05-19T00:31:16.892Z,14.90
2017-05-19T00:33:45.112Z,15.00
2017-05-19T00:36:14.070Z,15.00
2017-05-19T00:38:42.276Z,15.20
2017-05-19T00:41:11.237Z,15.10
2017-05-19T00:43:39.445Z,15.20
2017-05-19T00:46:08.396Z,15.20
2017-05-19T00:48:36.604Z,15.20
2017-05-19T00:51:06.304Z,15.20
2017-05-19T00:53:35.265Z,15.40
2017-05-19T00:56:03.480Z,15.50
2017-05-19T00:58:32.429Z,15.50
2017-05-19T01:01:00.647Z,15.60
2017-05-19T01:03:29.616Z,15.50
2017-05-19T01:05:57.819Z,15.50
2017-05-19T01:08:26.042Z,15.40
2017-05-19T01:10:55.097Z,15.30
2017-05-19T01:13:23.308Z,15.30
2017-05-19T01:15:52.134Z,15.20
2017-05-19T01:18:21.092Z,15.20
2017-05-19T01:20:49.304Z,15.20
2017-05-19T01:23:18.271Z,15.10
2017-05-19T01:25:46.480Z,15.10
2017-05-19T01:28:14.701Z,15.20
2017-05-19T01:30:43.691Z,15.20
2017-05-19T01:33:11.918Z,15.20
2017-05-19T01:35:40.139Z,15.30
2017-05-19T01:38:08.351Z,15.30
2017-05-19T01:40:37.311Z,15.30
2017-05-19T01:43:05.517Z,15.30
2017-05-19T01:45:34.472Z,15.30
2017-05-19T01:48:03.400Z,15.40
2017-05-19T01:50:32.356Z,15.40
2017-05-19T01:53:00.568Z,15.30
2017-05-19T01:55:29.532Z,15.30
2017-05-19T01:57:57.740Z,15.30
2017-05-19T02:00:26.711Z,15.40
2017-05-19T02:02:54.919Z,15.40
2017-05-19T02:05:23.132Z,15.30
2017-05-19T02:07:51.357Z,15.30
2017-05-19T02:10:20.312Z,15.20
2017-05-19T02:12:49.396Z,15.20
2017-05-19T02:15:17.605Z,15.30
2017-05-19T02:17:46.561Z,15.30
2017-05-19T02:20:14.764Z,15.30
2017-05-19T02:22:44.439Z,15.50
2017-05-19T02:25:12.647Z,15.60
2017-05-19T02:27:41.607Z,15.70
2017-05-19T02:30:09.815Z,15.80
2017-05-19T02:32:38.782Z,15.90
2017-05-19T02:35:06.991Z,15.70
2017-05-19T02:37:35.960Z,15.70
2017-05-19T02:40:04.168Z,15.40
2017-05-19T02:42:32.384Z,15.40
2017-05-19T02:45:00.595Z,15.50
2017-05-19T02:47:29.547Z,15.60
2017-05-19T02:49:57.761Z,15.60
2017-05-19T02:52:25.968Z,15.80
2017-05-19T02:54:54.192Z,15.80
2017-05-19T02:57:22.395Z,15.90
2017-05-19T02:59:51.360Z,16.00
2017-05-19T03:02:19.568Z,16.10
2017-05-19T03:04:47.787Z,16.20
2017-05-19T03:07:16.007Z,16.30
2017-05-19T03:09:44.968Z,16.40
2017-05-19T03:12:13.180Z,16.40
2017-05-19T03:14:41.405Z,16.50
2017-05-19T03:17:09.623Z,16.50
2017-05-19T03:19:38.576Z,16.40
2017-05-19T03:22:06.788Z,16.20
2017-05-19T03:24:35.740Z,16.40
2017-05-19T03:27:03.953Z,16.50
2017-05-19T03:29:32.896Z,16.60
2017-05-19T03:32:01.105Z,16.60
2017-05-19T03:34:30.057Z,16.40
2017-05-19T03:36:58.269Z,16.40
2017-05-19T03:39:27.229Z,16.40
2017-05-19T03:41:55.443Z,16.50
2017-05-19T03:44:24.396Z,16.30
2017-05-19T03:46:52.604Z,16.40
2017-05-19T03:49:21.561Z,16.30
2017-05-19T03:51:49.765Z,16.40
2017-05-19T03:54:18.722Z,16.50
2017-05-19T03:56:46.932Z,16.50
2017-05-19T03:59:15.898Z,16.50
2017-05-19T04:01:44.103Z,16.50
2017-05-19T04:04:13.189Z,16.70
2017-05-19T04:06:42.143Z,16.70
2017-05-19T04:09:10.363Z,16.70
2017-05-19T04:11:39.351Z,16.50
2017-05-19T04:14:08.316Z,16.40
2017-05-19T04:16:36.544Z,16.60
2017-05-19T04:19:04.776Z,16.70
2017-05-19T04:21:32.990Z,16.80
2017-05-19T04:24:01.203Z,16.90
2017-05-19T04:26:29.411Z,16.90
2017-05-19T04:28:58.364Z,17.00
2017-05-19T04:31:26.587Z,17.20
2017-05-19T04:33:55.532Z,17.30
2017-05-19T04:36:23.768Z,16.90
2017-05-19T04:38:51.980Z,17.00
2017-05-19T04:41:20.927Z,16.60
2017-05-19T04:43:49.143Z,16.90
2017-05-19T04:46:18.091Z,17.10
2017-05-19T04:48:46.512Z,16.90
2017-05-19T04:51:15.486Z,16.90
2017-05-19T04:53:43.698Z,16.80
2017-05-19T04:56:11.903Z,16.90
2017-05-19T04:58:40.116Z,17.10
2017-05-19T05:01:09.071Z,17.00
2017-05-19T05:03:37.291Z,17.20
2017-05-19T05:06:06.247Z,17.50
2017-05-19T05:08:34.463Z,17.20
2017-05-19T05:11:03.410Z,17.30
2017-05-19T05:13:31.638Z,17.80
2017-05-19T05:15:59.851Z,17.70
2017-05-19T05:18:28.055Z,17.80
2017-05-19T05:20:57.016Z,17.90
2017-05-19T05:23:25.223Z,19.00
2017-05-19T05:25:54.183Z,20.20
2017-05-19T05:28:22.399Z,21.70
2017-05-19T05:30:50.628Z,22.90
2017-05-19T05:33:18.843Z,24.00
2017-05-19T05:35:47.798Z,24.40
2017-05-19T05:38:16.008Z,24.70
2017-05-19T05:40:44.997Z,23.10
2017-05-19T05:43:13.952Z,22.40
2017-05-19T05:45:42.167Z,22.80
2017-05-19T05:48:11.131Z,22.80
2017-05-19T05:50:39.340Z,22.70
2017-05-19T05:53:08.303Z,21.80
2017-05-19T05:55:36.511Z,21.80
2017-05-19T05:58:04.731Z,21.60
2017-05-19T06:00:32.953Z,21.60
2017-05-19T06:03:01.200Z,21.80
2017-05-19T06:05:29.424Z,21.90
2017-05-19T06:07:57.652Z,22.00
2017-05-19T06:10:25.871Z,22.20
2017-05-19T06:12:54.083Z,22.20
2017-05-19T06:15:22.302Z,22.20
2017-05-19T06:17:51.288Z,21.00
2017-05-19T06:20:19.519Z,19.70
2017-05-19T06:22:47.740Z,19.00
2017-05-19T06:25:16.698Z,19.60
2017-05-19T06:27:44.899Z,21.00
2017-05-19T06:30:13.871Z,20.90
2017-05-19T06:32:42.093Z,20.50
2017-05-19T06:35:10.307Z,21.70
2017-05-19T06:37:38.568Z,22.90
2017-05-19T06:40:06.744Z,24.60
2017-05-19T06:42:34.984Z,25.40
2017-05-19T06:45:03.193Z,24.50
2017-05-19T06:47:31.416Z,25.10
2017-05-19T06:50:00.379Z,24.10
2017-05-19T06:52:28.588Z,22.90
2017-05-19T06:54:56.807Z,25.10
2017-05-19T06:57:25.027Z,24.40
2017-05-19T06:59:53.976Z,24.80
2017-05-19T07:02:22.245Z,24.60
2017-05-19T07:04:50.456Z,23.90
2017-05-19T07:07:18.699Z,23.90
2017-05-19T07:09:46.907Z,23.50
2017-05-19T07:12:15.119Z,23.80
2017-05-19T07:14:44.287Z,23.20
2017-05-19T07:17:12.506Z,22.70
2017-05-19T07:19:40.714Z,22.80
2017-05-19T07:22:08.935Z,22.20
2017-05-19T07:24:37.892Z,22.60
2017-05-19T07:27:06.107Z,22.60
2017-05-19T07:29:34.328Z,22.60
2017-05-19T07:32:02.539Z,22.00
2017-05-19T07:34:31.496Z,21.40
2017-05-19T07:36:59.720Z,21.80
2017-05-19T07:39:27.955Z,22.00
2017-05-19T07:41:56.161Z,20.50
2017-05-19T07:44:25.123Z,20.60
2017-05-19T07:46:54.207Z,20.60
2017-05-19T07:49:22.521Z,20.60
2017-05-19T07:51:51.474Z,21.10
2017-05-19T07:54:19.727Z,21.50
2017-05-19T07:56:47.931Z,21.40
2017-05-19T07:59:16.912Z,21.70
2017-05-19T08:01:45.900Z,21.40
2017-05-19T08:04:14.100Z,21.90
2017-05-19T08:06:42.341Z,22.20
2017-05-19T08:09:10.548Z,20.50
2017-05-19T08:11:38.765Z,21.10
2017-05-19T08:14:06.976Z,21.40
2017-05-19T08:16:35.319Z,21.00
2017-05-19T08:19:03.523Z,21.20
2017-05-19T08:21:32.478Z,20.90
2017-05-19T08:24:00.695Z,20.70
2017-05-19T08:26:29.648Z,20.30
2017-05-19T08:28:57.896Z,19.80
2017-05-19T08:31:26.122Z,19.40
2017-05-19T08:33:54.359Z,18.90
2017-05-19T08:36:22.592Z,18.60
2017-05-19T08:38:51.073Z,18.20
2017-05-19T08:41:19.310Z,17.70
2017-05-19T08:43:47.532Z,17.70
2017-05-19T08:46:15.735Z,17.50
2017-05-19T08:48:43.953Z,17.00
2017-05-19T08:51:12.900Z,16.80
2017-05-19T08:53:42.011Z,16.80
2017-05-19T08:56:10.999Z,16.70
2017-05-19T08:58:39.215Z,16.60
2017-05-19T09:01:08.583Z,16.70
2017-05-19T09:03:36.999Z,16.50
2017-05-19T09:06:05.216Z,16.50
2017-05-19T09:08:33.469Z,16.40
2017-05-19T09:11:01.763Z,16.40
2017-05-19T09:13:31.518Z,16.40
2017-05-19T09:15:59.767Z,16.60
2017-05-19T09:18:27.977Z,16.80
2017-05-19T09:20:56.195Z,17.00
2017-05-19T09:23:25.143Z,17.20
2017-05-19T09:25:53.351Z,17.40
2017-05-19T09:28:22.312Z,17.60
2017-05-19T09:30:50.518Z,17.70
2017-05-19T09:33:19.476Z,17.50
2017-05-19T09:35:47.686Z,17.60
2017-05-19T09:38:16.644Z,17.80
2017-05-19T09:40:44.856Z,17.70
2017-05-19T09:43:13.056Z,17.60
2017-05-19T09:45:41.295Z,17.20
2017-05-19T09:48:10.251Z,17.10
2017-05-19T09:50:38.464Z,16.90
2017-05-19T09:53:07.421Z,16.80
2017-05-19T09:55:35.640Z,16.90
2017-05-19T09:58:04.601Z,16.50
2017-05-19T10:00:32.807Z,16.50
2017-05-19T10:03:01.759Z,16.50
2017-05-19T10:05:29.959Z,16.40
2017-05-19T10:07:58.937Z,16.20
2017-05-19T10:10:27.150Z,16.00
2017-05-19T10:12:55.370Z,15.80
2017-05-19T10:15:23.595Z,15.70
2017-05-19T10:17:51.815Z,15.50
2017-05-19T10:20:20.022Z,15.30
2017-05-19T10:22:48.980Z,15.20
2017-05-19T10:25:17.196Z,14.80
2017-05-19T10:27:46.156Z,14.60
2017-05-19T10:30:14.360Z,14.50
2017-05-19T10:32:43.320Z,14.30
2017-05-19T10:35:11.527Z,14.30
2017-05-19T10:37:40.507Z,14.20
2017-05-19T10:40:09.465Z,14.00
2017-05-19T10:42:37.672Z,13.90
2017-05-19T10:45:05.914Z,13.90
2017-05-19T10:47:34.120Z,14.00
2017-05-19T10:50:03.077Z,14.00
2017-05-19T10:52:31.295Z,14.00
2017-05-19T10:55:00.246Z,13.90
2017-05-19T10:57:28.463Z,13.80
2017-05-19T10:59:56.679Z,13.90
2017-05-19T11:02:24.900Z,13.80
2017-05-19T11:04:53.132Z,13.80
2017-05-19T11:07:21.379Z,14.00
2017-05-19T11:09:49.600Z,14.00
2017-05-19T11:12:17.807Z,14.00
2017-05-19T11:14:46.052Z,14.00
2017-05-19T11:17:15.020Z,13.90
2017-05-19T11:19:43.244Z,13.90
2017-05-19T11:22:12.201Z,13.80
2017-05-19T11:24:40.423Z,13.80
2017-05-19T11:27:08.646Z,13.80
2017-05-19T11:29:36.868Z,13.60
2017-05-19T11:32:05.103Z,13.60
2017-05-19T11:34:33.335Z,13.80
2017-05-19T11:37:01.567Z,13.80
2017-05-19T11:39:30.550Z,13.90
2017-05-19T11:41:58.760Z,13.80
2017-05-19T11:44:26.971Z,13.80
2017-05-19T11:46:55.190Z,13.60
2017-05-19T11:49:24.147Z,13.70
2017-05-19T11:51:52.359Z,13.80
2017-05-19T11:54:21.328Z,13.80
2017-05-19T11:56:49.798Z,13.60
2017-05-19T11:59:18.017Z,13.50
2017-05-19T12:01:46.241Z,13.40
2017-05-19T12:04:14.461Z,13.30
2017-05-19T12:06:42.680Z,13.20
2017-05-19T12:09:10.916Z,13.10
2017-05-19T12:11:41.397Z,13.10
2017-05-19T12:14:09.607Z,13.00
2017-05-19T12:16:37.843Z,13.20
2017-05-19T12:19:42.803Z,13.10
2017-05-19T12:22:11.043Z,13.30
2017-05-19T12:24:39.260Z,13.30
2017-05-19T12:27:07.482Z,13.20
2017-05-19T12:29:35.709Z,13.20
2017-05-19T12:32:03.929Z,13.10
2017-05-19T12:34:32.146Z,13.10
2017-05-19T12:37:00.364Z,13.10
2017-05-19T12:39:28.603Z,13.10
2017-05-19T12:41:56.832Z,13.10
2017-05-19T12:44:25.061Z,13.10
2017-05-19T12:46:54.056Z,13.00
2017-05-19T12:49:22.288Z,12.90
2017-05-19T12:51:50.506Z,12.90
2017-05-19T12:54:18.743Z,13.00
2017-05-19T12:56:46.971Z,13.00
2017-05-19T12:59:15.192Z,12.90
2017-05-19T13:01:43.418Z,12.90
2017-05-19T13:04:11.639Z,12.90
2017-05-19T13:06:39.863Z,12.90
2017-05-19T13:09:08.079Z,12.90
2017-05-19T13:11:36.304Z,12.90
2017-05-19T13:14:04.519Z,12.80
2017-05-19T13:16:32.743Z,12.80
2017-05-19T13:19:00.964Z,12.70
2017-05-19T13:21:29.191Z,12.70
2017-05-19T13:23:57.427Z,12.70
2017-05-19T13:26:25.644Z,12.60
2017-05-19T13:28:53.868Z,12.60
2017-05-19T13:31:22.089Z,12.60
2017-05-19T13:33:50.306Z,12.40
2017-05-19T13:36:18.524Z,12.50
2017-05-19T13:38:46.785Z,12.40
2017-05-19T13:41:15.000Z,12.40
2017-05-19T13:43:43.228Z,12.30
2017-05-19T13:46:11.456Z,12.30
2017-05-19T13:48:39.667Z,12.40
2017-05-19T13:51:07.892Z,12.40
2017-05-19T13:53:36.205Z,12.30
2017-05-19T13:56:04.420Z,12.40
2017-05-19T13:58:32.652Z,12.40
2017-05-19T14:01:00.876Z,12.40
2017-05-19T14:03:29.104Z,12.40
2017-05-19T14:05:57.319Z,12.30
2017-05-19T14:08:25.548Z,12.40
2017-05-19T14:10:54.492Z,12.50
2017-05-19T14:13:22.816Z,12.60
2017-05-19T14:15:51.062Z,12.50
2017-05-19T14:18:20.107Z,12.50
2017-05-19T14:20:48.400Z,12.40
2017-05-19T14:23:16.676Z,12.40
2017-05-19T14:25:44.891Z,12.50
2017-05-19T14:28:13.108Z,12.30
2017-05-19T14:30:41.328Z,12.30
2017-05-19T14:33:09.547Z,12.30
2017-05-19T14:35:37.771Z,12.20
2017-05-19T14:38:05.983Z,12.20
2017-05-19T14:40:34.212Z,12.20
2017-05-19T14:43:02.431Z,12.00
2017-05-19T14:45:30.677Z,12.10
2017-05-19T14:47:58.904Z,12.00
2017-05-19T14:50:27.123Z,11.90
2017-05-19T14:52:55.349Z,11.90
2017-05-19T14:55:23.571Z,11.90
2017-05-19T14:57:51.786Z,11.90
2017-05-19T15:00:20.003Z,12.10
2017-05-19T15:02:47.460Z,12.00
2017-05-19T15:05:15.678Z,12.10
2017-05-19T15:07:43.968Z,12.10
2017-05-19T15:10:12.184Z,12.10
2017-05-19T15:12:40.403Z,12.20
2017-05-19T15:15:08.633Z,12.30
2017-05-19T15:17:36.873Z,12.40
2017-05-19T15:20:05.097Z,12.50
2017-05-19T15:22:33.322Z,12.60
2017-05-19T15:25:01.549Z,12.60
2017-05-19T15:27:29.772Z,12.80
2017-05-19T15:29:58.013Z,12.80
2017-05-19T15:32:26.233Z,12.90
2017-05-19T15:34:54.474Z,13.00
2017-05-19T15:37:22.696Z,13.00
2017-05-19T15:39:50.928Z,13.20
2017-05-19T15:42:19.165Z,13.20
2017-05-19T15:44:47.392Z,13.20
2017-05-19T15:47:15.619Z,13.20
2017-05-19T15:49:43.853Z,13.10
2017-05-19T15:52:12.100Z,12.60
2017-05-19T15:54:40.316Z,12.60
2017-05-19T15:57:08.545Z,12.70
2017-05-19T15:59:36.763Z,12.70
2017-05-19T16:02:04.992Z,12.50
2017-05-19T16:04:33.212Z,12.50
2017-05-19T16:07:01.436Z,12.40
2017-05-19T16:09:29.660Z,12.40
2017-05-19T16:11:57.889Z,12.40
2017-05-19T16:14:26.136Z,12.30
2017-05-19T16:16:54.351Z,12.30
2017-05-19T16:19:22.572Z,12.20
2017-05-19T16:21:50.796Z,12.10
2017-05-19T16:24:19.013Z,12.00
2017-05-19T16:26:47.235Z,12.00
2017-05-19T16:29:15.452Z,11.90
2017-05-19T16:31:43.734Z,11.80
2017-05-19T16:34:11.958Z,11.90
2017-05-19T16:36:40.208Z,11.90
2017-05-19T16:39:08.431Z,11.80
2017-05-19T16:41:36.644Z,11.90
2017-05-19T16:44:04.879Z,11.90
2017-05-19T16:46:33.099Z,11.70
2017-05-19T16:49:01.343Z,11.90
2017-05-19T16:51:29.561Z,12.00
2017-05-19T16:53:57.788Z,11.90
2017-05-19T16:56:26.027Z,12.00
2017-05-19T16:58:54.260Z,12.00
2017-05-19T17:01:22.476Z,12.10
2017-05-19T17:03:50.697Z,12.10
2017-05-19T17:06:18.153Z,12.10
2017-05-19T17:08:46.396Z,12.10
2017-05-19T17:11:14.612Z,12.20
2017-05-19T17:13:42.827Z,12.10
2017-05-19T17:16:11.064Z,12.10
2017-05-19T17:18:39.281Z,12.10
2017-05-19T17:21:07.495Z,12.10
2017-05-19T17:23:35.717Z,12.00
2017-05-19T17:26:03.935Z,12.10
2017-05-19T17:28:32.155Z,11.70
2017-05-19T17:31:00.383Z,11.70
2017-05-19T17:33:28.604Z,11.70
2017-05-19T17:35:56.823Z,11.70
2017-05-19T17:38:25.053Z,11.60
2017-05-19T17:40:53.275Z,11.60
2017-05-19T17:43:21.519Z,11.80
2017-05-19T17:45:49.739Z,11.90
2017-05-19T17:48:17.971Z,11.80
2017-05-19T17:50:46.195Z,11.60
2017-05-19T17:53:14.424Z,11.70
2017-05-19T17:55:42.635Z,11.70
2017-05-19T17:58:10.887Z,11.60
2017-05-19T18:00:39.849Z,11.60
2017-05-19T18:03:07.292Z,11.60
2017-05-19T18:05:34.739Z,11.40
2017-05-19T18:08:02.963Z,11.30
2017-05-19T18:10:30.460Z,11.30
2017-05-19T18:12:57.916Z,11.30
2017-05-19T18:15:25.365Z,11.20
2017-05-19T18:17:54.072Z,11.20
2017-05-19T19:30:26.534Z,11.00
2017-05-19T19:32:57.366Z,10.90
2017-05-19T19:35:26.421Z,10.90
2017-05-19T19:37:54.997Z,10.80
2017-05-19T19:40:23.668Z,10.80
2017-05-19T19:42:52.842Z,10.90
2017-05-19T19:45:21.796Z,10.70
2017-05-19T19:47:50.012Z,10.70
2017-05-19T19:50:18.239Z,10.70
2017-05-19T19:52:46.452Z,10.70
2017-05-19T19:55:14.695Z,10.70
2017-05-19T19:57:42.908Z,10.60
2017-05-19T20:00:10.380Z,10.60
2017-05-19T20:02:38.600Z,10.60
2017-05-19T20:05:06.812Z,10.60
2017-05-19T20:07:35.046Z,10.60
2017-05-19T20:10:03.255Z,10.50
2017-05-19T20:12:31.480Z,10.60
2017-05-19T20:14:58.927Z,10.50
2017-05-19T20:17:34.760Z,10.50
2017-05-19T20:20:03.038Z,10.40
2017-05-19T20:22:31.251Z,10.50
2017-05-19T20:24:59.476Z,10.40
2017-05-19T20:27:27.697Z,10.40
2017-05-19T20:29:55.960Z,10.50
2017-05-19T20:32:24.200Z,10.50
2017-05-19T20:34:52.417Z,10.50
2017-05-19T20:37:20.649Z,10.40
2017-05-19T20:39:48.866Z,10.40
2017-05-19T20:42:17.100Z,10.50
2017-05-19T20:44:45.315Z,10.50
2017-05-19T20:47:13.535Z,10.60
2017-05-19T20:49:41.756Z,10.60
2017-05-19T20:52:09.980Z,10.30
2017-05-19T20:54:38.245Z,10.50
2017-05-19T20:57:06.461Z,10.60
2017-05-19T20:59:33.927Z,10.60
2017-05-19T21:02:02.151Z,10.70
2017-05-19T21:04:30.398Z,10.50
2017-05-19T21:06:58.618Z,10.60
2017-05-19T21:09:26.848Z,10.50
2017-05-19T21:11:55.073Z,10.60
2017-05-19T21:14:23.302Z,10.50
2017-05-19T21:16:51.535Z,10.50
2017-05-19T21:19:19.748Z,10.40
2017-05-19T21:21:47.984Z,10.60
2017-05-19T21:24:16.196Z,10.60
2017-05-19T21:26:44.440Z,10.50
2017-05-19T21:29:12.660Z,10.40
2017-05-19T21:31:40.880Z,10.50
2017-05-19T21:34:09.103Z,10.50
2017-05-19T21:36:37.323Z,10.60
2017-05-19T21:39:05.553Z,10.50
2017-05-19T21:41:33.777Z,10.40
2017-05-19T21:44:01.999Z,10.30
2017-05-19T21:46:30.220Z,10.40
2017-05-19T21:48:58.448Z,10.40
2017-05-19T21:51:27.025Z,10.50
2017-05-19T21:53:55.248Z,10.30
2017-05-19T21:56:23.498Z,10.30
2017-05-19T21:58:51.716Z,10.10
2017-05-19T22:01:19.956Z,10.10
2017-05-19T22:03:48.179Z,10.00
2017-05-19T22:06:16.400Z,9.80
2017-05-19T22:08:44.627Z,9.80
2017-05-19T22:11:12.883Z,9.90
2017-05-19T22:13:41.100Z,9.90
2017-05-19T22:16:09.323Z,9.90
2017-05-19T22:18:37.543Z,9.80
2017-05-19T22:21:05.760Z,9.80
2017-05-19T22:23:33.215Z,9.80
2017-05-19T22:26:01.428Z,9.80
2017-05-19T22:28:29.648Z,9.80
2017-05-19T22:30:57.873Z,9.60
2017-05-19T22:33:26.085Z,9.40
2017-05-19T22:35:54.299Z,9.40
2017-05-19T22:38:22.525Z,9.50
2017-05-19T22:40:50.746Z,9.50
2017-05-19T22:43:18.967Z,9.20
2017-05-19T22:45:47.183Z,9.40
2017-05-19T22:48:15.443Z,9.30
2017-05-19T22:50:43.652Z,9.30
2017-05-19T22:53:11.881Z,9.10
2017-05-19T22:55:40.100Z,9.10
2017-05-19T22:58:08.343Z,9.00
2017-05-19T23:00:36.556Z,9.00
2017-05-19T23:03:04.785Z,9.10
2017-05-19T23:05:32.999Z,9.20
2017-05-19T23:08:01.212Z,9.20
2017-05-19T23:10:29.438Z,9.10
2017-05-19T23:12:57.655Z,9.10
2017-05-19T23:15:25.875Z,9.00
2017-05-19T23:17:54.089Z,9.10
2017-05-19T23:20:22.323Z,8.80
2017-05-19T23:22:50.536Z,8.90
2017-05-19T23:25:18.772Z,8.90
2017-05-19T23:27:46.980Z,8.80
2017-05-19T23:30:15.204Z,8.80
2017-05-19T23:32:43.425Z,8.90
2017-05-19T23:35:11.650Z,9.00
2017-05-19T23:37:39.866Z,9.00
2017-05-19T23:40:08.091Z,8.90
2017-05-19T23:42:36.311Z,8.60
2017-05-19T23:45:04.523Z,8.40
2017-05-19T23:47:32.745Z,8.60
2017-05-19T23:50:00.971Z,8.50
2017-05-19T23:52:29.220Z,8.50
2017-05-19T23:54:57.436Z,8.60
2017-05-19T23:57:25.647Z,8.30
2017-05-19T23:59:53.872Z,8.50
